Home > Products > Valid Products > TAF

000
FTUS46 KPDT 080536
TAFPSC
TAF
KPSC 080536Z 0806/0906 34003KT P6SM SCT200
      TEMPO 0813/0817 5SM BR=



000
FTUS46 KPDT 080536
TAFPDT
TAF
KPDT 080536Z 0806/0906 11005KT P6SM SCT200
     FM082100 31006KT P6SM SCT200
     FM090200 11005KT P6SM SCT200=



000
FTUS46 KPDT 080536
TAFDLS
TAF
KDLS 080536Z 0806/0906 11005KT P6SM SCT200
     FM081000 11005KT P6SM SCT015 SCT200
     FM081800 12006KT P6SM SCT200=



000
FTUS46 KPDT 080536
TAFRDM
TAF
KRDM 080536Z 0806/0906 18004KT P6SM SCT200
     FM081800 VRB05KT P6SM SKC=



000
FTUS46 KPDT 080536
TAFYKM
TAF
KYKM 080536Z 0806/0906 27006KT P6SM SCT200=



000
FTUS46 KPDT 080536
TAFPSC
TAF
KPSC 080536Z 0806/0906 34003KT P6SM SCT200
      TEMPO 0813/0817 5SM BR=



000
FTUS46 KPDT 080536
TAFDLS
TAF
KDLS 080536Z 0806/0906 11005KT P6SM SCT200
     FM081000 11005KT P6SM SCT015 SCT200
     FM081800 12006KT P6SM SCT200=



000
FTUS46 KPDT 080536
TAFALW
TAF
KALW 080536Z 0806/0906 12004KT P6SM SCT200
     FM081600 VRB05KT P6SM SCT200
     FM090400 12004KT P6SM SCT200=



000
FTUS46 KPDT 080536
TAFALW
TAF
KALW 080536Z 0806/0906 12004KT P6SM SCT200
     FM081600 VRB05KT P6SM SCT200
     FM090400 12004KT P6SM SCT200=



000
FTUS46 KPDT 080536
TAFPDT
TAF
KPDT 080536Z 0806/0906 11005KT P6SM SCT200
     FM082100 31006KT P6SM SCT200
     FM090200 11005KT P6SM SCT200=



000
FTUS46 KPDT 080536
TAFYKM
TAF
KYKM 080536Z 0806/0906 27006KT P6SM SCT200=



000
FTUS46 KPDT 080536
TAFRDM
TAF
KRDM 080536Z 0806/0906 18004KT P6SM SCT200
     FM081800 VRB05KT P6SM SKC=



000
FTUS46 KPDT 072320
TAFRDM
TAF
KRDM 072320Z 0800/0824 11004KT P6SM BKN200
     FM080300 VRB02KT P6SM SCT200
     FM081800 12005KT P6SM SCT200=



000
FTUS46 KPDT 072320
TAFDLS
TAF
KDLS 072320Z 0800/0824 08005KT P6SM SCT200
     FM081000 10002KT P6SM FEW008 SCT200
      TEMPO 0812/0814 3SM BR SCT008
     FM081800 12003KT P6SM SCT200=



000
FTUS46 KPDT 072320
TAFPSC
TAF
KPSC 072320Z 0800/0824 34003KT P6SM SCT200
     FM081400 33003KT 5SM BR SCT008 SCT200
     FM081800 34004KT P6SM SCT008 SCT200=



000
FTUS46 KPDT 072320
TAFYKM
TAF
KYKM 072320Z 0800/0824 VRB02KT P6SM SCT200
     FM081200 VRB03KT 5SM BR FEW015 BKN200
      TEMPO 0812/0814 3SM BR BKN015
     FM081500 VRB03KT 6SM BR SCT015 SCT100
     FM081800 29006KT P6SM SCT200=



000
FTUS46 KPDT 072320
TAFALW
TAF
KALW 072320Z 0800/0824 VRB04KT P6SM SCT200
     FM081200 12003KT 5SM BR SCT200
     FM081500 VRB03KT 6SM BR SCT200
     FM081800 29003KT P6SM SCT200=



000
FTUS46 KPDT 072320
TAFPDT
TAF
KPDT 072320Z 0800/0824 31007KT P6SM SCT200
     FM080300 09003KT P6SM SCT200
     FM081200 VRB03KT P6SM SCT200
     FM082100 32006KT P6SM SCT200=



000
FTUS46 KPDT 071720
TAFRDM
TAF
KRDM 071720Z 0718/0818 15004KT P6SM FEW070 BKN200
     FM080300 VRB02KT P6SM SCT110 SCT200=



000
FTUS46 KPDT 071720
TAFALW
TAF
KALW 071720Z 0718/0818 12005KT P6SM SCT200
     FM072100 VRB04KT P6SM SCT070 BKN200
     FM080400 09004KT P6SM BKN100
     FM080900 12003KT 4SM BR BKN100
     FM081500 VRB03KT 6SM BR SCT100=



000
FTUS46 KPDT 071720
TAFPSC
TAF
KPSC 071720Z 0718/0818 34003KT P6SM FEW120 BKN200
     FM081200 33003KT 3SM BR SCT008
     FM081500 33004KT 5SM BR SCT008=



000
FTUS46 KPDT 071720
TAFDLS
TAF
KDLS 071720Z 0718/0818 08005KT P6SM FEW040 BKN200
     FM080300 VRB03KT P6SM SCT110 BKN200
     FM081000 VRB02KT 3SM BR SCT008=



000
FTUS46 KPDT 071720
TAFYKM
TAF
KYKM 071720Z 0718/0818 28007KT P6SM BKN200
     FM072100 VRB02KT P6SM SCT060 BKN200
     FM080800 28003KT 4SM BR BKN100
     FM081200 VRB03KT 2SM BR OVC015
     FM081500 VRB03KT 3SM BR SCT015 SCT100=



000
FTUS46 KPDT 071720
TAFPDT
TAF
KPDT 071720Z 0718/0818 14005KT P6SM SCT200
     FM072100 VRB03KT P6SM SCT070 BKN200
     FM080400 11003KT P6SM SCT110 BKN200
      TEMPO 0810/0812 4SM BR
     FM081200 VRB03KT P6SM SCT200
      TEMPO 0812/0814 4SM BR=



000
FTUS46 KPDT 071120
TAFPDT
TAF
KPDT 071120Z 0712/0812 14005KT P6SM SCT110
     FM071900 VRB03KT P6SM SCT070 BKN110
     FM080400 11003KT P6SM SCT110 BKN200
      TEMPO 0810/0812 4SM BR=



000
FTUS46 KPDT 071120
TAFALW
TAF
KALW 071120Z 0712/0812 12005KT P6SM SCT110
     FM071900 VRB04KT P6SM SCT070 BKN110
     FM080400 09004KT P6SM BKN100
     FM080900 12003KT 4SM BR BKN100=



000
FTUS46 KPDT 071120
TAFYKM
TAF
KYKM 071120Z 0712/0812 28007KT P6SM SCT200
     FM071500 VRB04KT P6SM BKN100 BKN200
     FM072100 VRB02KT P6SM SCT060 BKN100
     FM080600 28003KT 4SM BR BKN100
     FM081000 VRB03KT 2SM BR OVC015=



000
FTUS46 KPDT 071120
TAFRDM
TAF
KRDM 071120Z 0712/0812 17004KT P6SM SCT110
     FM071800 15004KT P6SM FEW070 BKN110 BKN200
     FM080300 VRB02KT P6SM SCT110 SCT200=



000
FTUS46 KPDT 071120
TAFDLS
TAF
KDLS 071120Z 0712/0812 VRB04KT P6SM SCT110 BKN200
     FM071800 08005KT P6SM SCT070 BKN110
     FM080300 VRB03KT P6SM SCT110 BKN200
     FM081000 VRB02KT 3SM BR SCT008=



000
FTUS46 KPDT 071120
TAFPSC
TAF
KPSC 071120Z 0712/0812 VRB02KT P6SM SCT120
     FM071800 34003KT P6SM BKN120 BKN200
     FM081000 33003KT 3SM BR SCT008=



000
FTUS46 KPDT 070540
TAFPDT
TAF
KPDT 070540Z 0706/0806 15007KT P6SM BKN100 OVC140
     FM071200 12008KT P6SM BKN080 OVC100
     FM071600 VRB06KT P6SM BKN060 OVC100
     FM080400 15007KT P6SM BKN100=



000
FTUS46 KPDT 070540
TAFPSC
TAF
KPSC 070540Z 0706/0806 VRB06KT P6SM BKN100
     FM071500 VRB05KT P6SM BKN080
     FM072100 35006KT P6SM BKN060
     FM080400 VRB06KT P6SM BKN100=



000
FTUS46 KPDT 070540
TAFYKM
TAF
KYKM 070540Z 0706/0806 28007KT P6SM OVC090
     FM071400 VRB06KT P6SM OVC070
     FM071800 VRB06KT P6SM BKN040 OVC070
     FM080400 25007KT P6SM BKN100=



000
FTUS46 KPDT 070540
TAFRDM
TAF
KRDM 070540Z 0706/0806 17007KT P6SM BKN080 BKN180
     FM070800 17007KT P6SM BKN060
     FM071400 14006KT P6SM SCT060 SCT250=



000
FTUS46 KPDT 070540
TAFDLS
TAF
KDLS 070540Z 0706/0806 VRB06KT P6SM BKN080
     FM071400 11005KT P6SM SCT030 BKN035 BKN060
     FM072000 11006KT P6SM SCT030 BKN060
     FM080400 VRB06KT P6SM BKN100=



000
FTUS46 KPDT 070540
TAFALW
TAF
KALW 070540Z 0706/0806 12005KT P6SM BKN100 OVC140
     FM071200 12008KT P6SM BKN080 OVC100
     FM071600 18006KT P6SM BKN060 OVC100
     FM080400 15007KT P6SM BKN100=



000
FTUS46 KPDT 070540
TAFALW
TAF
KALW 070540Z 0706/0806 12005KT P6SM BKN100 OVC140
     FM071200 12008KT P6SM BKN080 OVC100
     FM071600 18006KT P6SM BKN060 OVC100
     FM080400 15007KT P6SM BKN100=



000
FTUS46 KPDT 070540
TAFPSC
TAF
KPSC 070540Z 0706/0806 VRB06KT P6SM BKN100
     FM071500 VRB05KT P6SM BKN080
     FM072100 35006KT P6SM BKN060
     FM080400 VRB06KT P6SM BKN100=



000
FTUS46 KPDT 070540
TAFPDT
TAF
KPDT 070540Z 0706/0806 15007KT P6SM BKN100 OVC140
     FM071200 12008KT P6SM BKN080 OVC100
     FM071600 VRB06KT P6SM BKN060 OVC100
     FM080400 15007KT P6SM BKN100=



000
FTUS46 KPDT 070540
TAFRDM
TAF
KRDM 070540Z 0706/0806 17007KT P6SM BKN080 BKN180
     FM070800 17007KT P6SM BKN060
     FM071400 14006KT P6SM SCT060 SCT250=



000
FTUS46 KPDT 070540
TAFDLS
TAF
KDLS 070540Z 0706/0806 VRB06KT P6SM BKN080
     FM071400 11005KT P6SM SCT030 BKN035 BKN060
     FM072000 11006KT P6SM SCT030 BKN060
     FM080400 VRB06KT P6SM BKN100=



000
FTUS46 KPDT 070540
TAFYKM
TAF
KYKM 070540Z 0706/0806 28007KT P6SM OVC090
     FM071400 VRB06KT P6SM OVC070
     FM071800 VRB06KT P6SM BKN040 OVC070
     FM080400 25007KT P6SM BKN100=



000
FTUS46 KPDT 062320
TAFALW
TAF
KALW 062320Z 0700/0724 23008KT P6SM OVC140
     FM070300 12005KT P6SM BKN100 OVC140
     FM071200 12008KT P6SM BKN080 OVC120
     FM071600 18006KT P6SM BKN060 OVC120=



000
FTUS46 KPDT 062320
TAFPDT
TAF
KPDT 062320Z 0700/0724 31006KT P6SM OVC140
     FM070300 13006KT P6SM BKN100 OVC140
     FM071200 12008KT P6SM BKN080 OVC120
     FM071600 VRB06KT P6SM BKN060 OVC120=



000
FTUS46 KPDT 062320
TAFPSC
TAF
KPSC 062320Z 0700/0724 20008KT P6SM OVC140
     FM070300 VRB05KT P6SM BKN100
     FM071500 VRB05KT P6SM BKN080
     FM072100 35006KT P6SM BKN060=



000
FTUS46 KPDT 062320
TAFRDM
TAF
KRDM 062320Z 0700/0724 VRB05KT P6SM BKN100 BKN180
     FM070500 17007KT P6SM BKN080 BKN180
     FM070800 17007KT P6SM BKN060
     FM071400 14006KT P6SM SCT060 SCT200=



000
FTUS46 KPDT 062320
TAFYKM
TAF
KYKM 062320Z 0700/0724 VRB06KT P6SM OVC150
     FM070300 28006KT P6SM OVC090
     FM071400 VRB06KT P6SM OVC070
     FM071800 VRB06KT P6SM BKN040 OVC070=



000
FTUS46 KPDT 062320
TAFDLS
TAF
KDLS 062320Z 0700/0724 34007KT P6SM BKN120
     FM070700 VRB04KT P6SM BKN080
     FM071400 11005KT P6SM SCT015 BKN035 BKN060
     FM072000 11006KT P6SM SCT035 BKN060=



000
FTUS46 KPDT 062320
TAFPDT
TAF
KPDT 062320Z 0700/0724 31006KT P6SM OVC140
     FM070300 13006KT P6SM BKN100 OVC140
     FM071200 12008KT P6SM BKN080 OVC120
     FM071600 VRB06KT P6SM BKN060 OVC120=



000
FTUS46 KPDT 062320
TAFALW
TAF
KALW 062320Z 0700/0724 23008KT P6SM OVC140
     FM070300 12005KT P6SM BKN100 OVC140
     FM071200 12008KT P6SM BKN080 OVC120
     FM071600 18006KT P6SM BKN060 OVC120=



000
FTUS46 KPDT 062320
TAFDLS
TAF
KDLS 062320Z 0700/0724 34007KT P6SM BKN120
     FM070700 VRB04KT P6SM BKN080
     FM071400 11005KT P6SM SCT015 BKN035 BKN060
     FM072000 11006KT P6SM SCT035 BKN060=



000
FTUS46 KPDT 062320
TAFPSC
TAF
KPSC 062320Z 0700/0724 20008KT P6SM OVC140
     FM070300 VRB05KT P6SM BKN100
     FM071500 VRB05KT P6SM BKN080
     FM072100 35006KT P6SM BKN060=



000
FTUS46 KPDT 062320
TAFYKM
TAF
KYKM 062320Z 0700/0724 VRB06KT P6SM OVC150
     FM070300 28006KT P6SM OVC090
     FM071400 VRB06KT P6SM OVC070
     FM071800 VRB06KT P6SM BKN040 OVC070=



000
FTUS46 KPDT 062320
TAFRDM
TAF
KRDM 062320Z 0700/0724 VRB05KT P6SM BKN100 BKN180
     FM070500 17007KT P6SM BKN080 BKN180
     FM070800 17007KT P6SM BKN060
     FM071400 14006KT P6SM SCT060 SCT200=



000
FTUS46 KPDT 061720
TAFDLS
TAF
KDLS 061720Z 0618/0718 30007KT P6SM BKN120
     FM070700 VRB04KT P6SM OVC080
     FM071400 11005KT P6SM SCT035 OVC060=



000
FTUS46 KPDT 061720
TAFALW
TAF
KALW 061720Z 0618/0718 22012KT P6SM BKN150
     FM070300 12005KT P6SM BKN100
     FM071200 12008KT P6SM OVC080=



000
FTUS46 KPDT 061720
TAFPSC
TAF
KPSC 061720Z 0618/0718 23010KT P6SM BKN150
     FM070300 VRB05KT P6SM BKN100
     FM071500 VRB05KT P6SM BKN080=



000
FTUS46 KPDT 061720
TAFYKM
TAF
KYKM 061720Z 0618/0718 VRB06KT P6SM OVC150
     FM070200 28004KT P6SM OVC090
     FM071400 VRB06KT P6SM OVC070=



000
FTUS46 KPDT 061720
TAFRDM
TAF
KRDM 061720Z 0618/0718 VRB05KT P6SM BKN180
     FM070300 17007KT P6SM BKN080
     FM070700 VRB05KT P6SM OVC060=



000
FTUS46 KPDT 061720
TAFPDT
TAF
KPDT 061720Z 0618/0718 22008KT P6SM SCT080 BKN150
     FM070000 25009KT P6SM BKN140
     FM070300 13006KT P6SM BKN100
     FM071200 12008KT P6SM OVC080=



000
FTUS46 KPDT 061120
TAFPSC
TAF
KPSC 061120Z 0612/0712 24012KT P6SM SCT090
     FM061600 23012KT P6SM SCT150 BKN200
     FM070200 VRB05KT P6SM SCT100 BKN150=



000
FTUS46 KPDT 061120
TAFALW
TAF
KALW 061120Z 0612/0712 21015KT P6SM BKN060
     FM061600 22012KT P6SM SCT150 BKN200
     FM070200 12005KT P6SM SCT090 BKN150=



000
FTUS46 KPDT 061120
TAFALW
TAF
KALW 061120Z 0612/0712 21015KT P6SM BKN060
     FM061600 22012KT P6SM SCT150 BKN200
     FM070200 12005KT P6SM SCT090 BKN150=



000
FTUS46 KPDT 061120
TAFRDM
TAF
KRDM 061120Z 0612/0712 VRB04KT P6SM FEW070 SCT200
     FM061600 14005KT P6SM SCT120 BKN200
     FM070300 VRB02KT P6SM BKN080=



000
FTUS46 KPDT 061120
TAFYKM
TAF
KYKM 061120Z 0612/0712 23010KT P6SM SCT060
     FM061400 28010KT P6SM SCT150 BKN200
     FM062000 15005KT P6SM FEW050 BKN150
     FM070200 28004KT P6SM SCT090 BKN120
     FM070900 31002KT 4SM BR BKN090=



000
FTUS46 KPDT 061120
TAFPDT
TAF
KPDT 061120Z 0612/0712 26013KT P6SM BKN080
     FM061600 25011KT P6SM SCT150 BKN200
     FM070300 13006KT P6SM SCT090 BKN150=



000
FTUS46 KPDT 061120
TAFRDM
TAF
KRDM 061120Z 0612/0712 VRB04KT P6SM FEW070 SCT200
     FM061600 14005KT P6SM SCT120 BKN200
     FM070300 VRB02KT P6SM BKN080=



000
FTUS46 KPDT 061120
TAFDLS
TAF
KDLS 061120Z 0612/0712 30007KT P6SM SCT070 BKN150
     FM070300 33004KT P6SM BKN100=



000
FTUS46 KPDT 061120
TAFDLS
TAF
KDLS 061120Z 0612/0712 30007KT P6SM SCT070 BKN150
     FM070300 33004KT P6SM BKN100=



000
FTUS46 KPDT 061120
TAFPDT
TAF
KPDT 061120Z 0612/0712 26013KT P6SM BKN080
     FM061600 25011KT P6SM SCT150 BKN200
     FM070300 13006KT P6SM SCT090 BKN150=



000
FTUS46 KPDT 061120
TAFYKM
TAF
KYKM 061120Z 0612/0712 23010KT P6SM SCT060
     FM061400 28010KT P6SM SCT150 BKN200
     FM062000 15005KT P6SM FEW050 BKN150
     FM070200 28004KT P6SM SCT090 BKN120
     FM070900 31002KT 4SM BR BKN090=



000
FTUS46 KPDT 061120
TAFPSC
TAF
KPSC 061120Z 0612/0712 24012KT P6SM SCT090
     FM061600 23012KT P6SM SCT150 BKN200
     FM070200 VRB05KT P6SM SCT100 BKN150=



000
FTUS46 KPDT 061043 AAA
TAFPSC
TAF AMD
KPSC 061043Z 0611/0706 24010KT P6SM SCT090
     FM061600 23012KT P6SM SCT150 BKN200
     FM070200 27005KT P6SM SCT100 BKN150=



000
FTUS46 KPDT 061043 AAA
TAFYKM
TAF AMD
KYKM 061043Z 0611/0706 26006KT P6SM SCT060
     FM061400 28008KT P6SM SCT150 BKN200
     FM061900 15005KT P6SM FEW050 BKN150
     FM070200 28004KT P6SM SCT090 BKN120=



000
FTUS46 KPDT 061042 AAB
TAFPDT
TAF AMD
KPDT 061042Z 0611/0706 28010KT P6SM BKN080
     FM061600 26011KT P6SM SCT150 BKN200
     FM070300 13006KT P6SM SCT090 BKN150=



000
FTUS46 KPDT 060848 AAA
TAFRDM
TAF AMD
KRDM 060848Z 0609/0706 VRB05KT P6SM BKN070 BKN120
     FM061000 19009KT P6SM FEW070 SCT200
     FM061600 14005KT P6SM SCT120 BKN200
     FM070300 17004KT P6SM BKN080=



000
FTUS46 KPDT 060848 AAA
TAFRDM
TAF AMD
KRDM 060848Z 0609/0706 VRB05KT P6SM BKN070 BKN120
     FM061000 19009KT P6SM FEW070 SCT200
     FM061600 14005KT P6SM SCT120 BKN200
     FM070300 17004KT P6SM BKN080=



000
FTUS46 KPDT 060631 AAA
TAFPDT
TAF AMD
KPDT 060631Z 0607/0706 28013G21KT P6SM -SHRA BKN070 OVC090
     FM060900 24015G23KT P6SM SCT090
     FM061600 26011KT P6SM SCT150 BKN200
     FM070300 13006KT P6SM SCT090 BKN150=



000
FTUS46 KPDT 060631 AAA
TAFPDT
TAF AMD
KPDT 060631Z 0607/0706 28013G21KT P6SM -SHRA BKN070 OVC090
     FM060900 24015G23KT P6SM SCT090
     FM061600 26011KT P6SM SCT150 BKN200
     FM070300 13006KT P6SM SCT090 BKN150=



000
FTUS46 KPDT 060537
TAFYKM
TAF
KYKM 060537Z 0606/0706 26009KT P6SM VCSH SCT060 BKN120
     FM060900 25011G16KT P6SM SCT060
     FM061200 28008KT P6SM SCT150 BKN200
     FM061900 15005KT P6SM FEW050 BKN150
     FM070200 28004KT P6SM SCT090 BKN120=



000
FTUS46 KPDT 060537
TAFRDM
TAF
KRDM 060537Z 0606/0706 20013G20KT P6SM VCSH BKN060 BKN120
     FM060900 19009KT P6SM FEW070 SCT200
     FM061600 14005KT P6SM SCT120 BKN200
     FM070300 17004KT P6SM BKN080=



000
FTUS46 KPDT 060537
TAFALW
TAF
KALW 060537Z 0606/0706 18015G23KT P6SM -SHRA BKN070 OVC090
     FM061000 21017G25KT P6SM SCT090
     FM061600 22012KT P6SM SCT150 BKN200
     FM070200 16006KT P6SM SCT090 BKN150=



000
FTUS46 KPDT 060537
TAFYKM
TAF
KYKM 060537Z 0606/0706 26009KT P6SM VCSH SCT060 BKN120
     FM060900 25011G16KT P6SM SCT060
     FM061200 28008KT P6SM SCT150 BKN200
     FM061900 15005KT P6SM FEW050 BKN150
     FM070200 28004KT P6SM SCT090 BKN120=



000
FTUS46 KPDT 060537
TAFPDT
TAF
KPDT 060537Z 0606/0706 22013G20KT P6SM -SHRA BKN070 OVC090
     FM060900 24015G23KT P6SM SCT090
     FM061600 26011KT P6SM SCT150 BKN200
     FM070300 13006KT P6SM SCT090 BKN150=



000
FTUS46 KPDT 060537
TAFRDM
TAF
KRDM 060537Z 0606/0706 20013G20KT P6SM VCSH BKN060 BKN120
     FM060900 19009KT P6SM FEW070 SCT200
     FM061600 14005KT P6SM SCT120 BKN200
     FM070300 17004KT P6SM BKN080=



000
FTUS46 KPDT 060537
TAFPSC
TAF
KPSC 060537Z 0606/0706 22011KT P6SM VCSH SCT060 OVC090
     FM060800 22013G20KT P6SM SCT090
     FM061600 23012KT P6SM SCT150 BKN200
     FM070200 27005KT P6SM SCT100 BKN150=



000
FTUS46 KPDT 060537
TAFDLS
TAF
KDLS 060537Z 0606/0706 30011KT P6SM -SHRA FEW035 BKN045 OVC070
     FM060800 29011KT P6SM VCSH SCT050 BKN070
     FM061300 30008KT P6SM SCT070 BKN150
     FM070300 33004KT P6SM BKN100=



000
FTUS46 KPDT 060537
TAFPSC
TAF
KPSC 060537Z 0606/0706 22011KT P6SM VCSH SCT060 OVC090
     FM060800 22013G20KT P6SM SCT090
     FM061600 23012KT P6SM SCT150 BKN200
     FM070200 27005KT P6SM SCT100 BKN150=



000
FTUS46 KPDT 060537
TAFDLS
TAF
KDLS 060537Z 0606/0706 30011KT P6SM -SHRA FEW035 BKN045 OVC070
     FM060800 29011KT P6SM VCSH SCT050 BKN070
     FM061300 30008KT P6SM SCT070 BKN150
     FM070300 33004KT P6SM BKN100=



000
FTUS46 KPDT 060537
TAFALW
TAF
KALW 060537Z 0606/0706 18015G23KT P6SM -SHRA BKN070 OVC090
     FM061000 21017G25KT P6SM SCT090
     FM061600 22012KT P6SM SCT150 BKN200
     FM070200 16006KT P6SM SCT090 BKN150=



000
FTUS46 KPDT 060537
TAFPDT
TAF
KPDT 060537Z 0606/0706 22013G20KT P6SM -SHRA BKN070 OVC090
     FM060900 24015G23KT P6SM SCT090
     FM061600 26011KT P6SM SCT150 BKN200
     FM070300 13006KT P6SM SCT090 BKN150=



000
FTUS46 KPDT 060405 AAA
TAFYKM
TAF AMD
KYKM 060405Z 0604/0624 21012G19KT P6SM VCSH BKN070 OVC090
     FM060500 25011G16KT P6SM SCT070
     FM061200 28010KT P6SM BKN150
     FM061800 VRB06KT P6SM SCT050 BKN120=



000
FTUS46 KPDT 060405 AAA
TAFYKM
TAF AMD
KYKM 060405Z 0604/0624 21012G19KT P6SM VCSH BKN070 OVC090
     FM060500 25011G16KT P6SM SCT070
     FM061200 28010KT P6SM BKN150
     FM061800 VRB06KT P6SM SCT050 BKN120=



000
FTUS46 KPDT 060335 AAA
TAFPSC
TAF AMD
KPSC 060335Z 0604/0624 21006KT P6SM BKN110
     FM060500 22015G25KT P6SM VCSH BKN070 OVC100
     FM060900 23015G25KT P6SM SCT100
     FM061500 22012KT P6SM BKN150=



000
FTUS46 KPDT 060335 AAA
TAFPSC
TAF AMD
KPSC 060335Z 0604/0624 21006KT P6SM BKN110
     FM060500 22015G25KT P6SM VCSH BKN070 OVC100
     FM060900 23015G25KT P6SM SCT100
     FM061500 22012KT P6SM BKN150=



000
FTUS46 KPDT 060332 AAA
TAFALW
TAF AMD
KALW 060332Z 0604/0624 16015G23KT P6SM SCT120 OVC150
     FM060500 18015G25KT P6SM VCSH BKN060 OVC090
     FM061000 21015G25KT P6SM SCT060
     FM061800 22012KT P6SM BKN120=



000
FTUS46 KPDT 060239 AAA
TAFRDM
TAF AMD
KRDM 060239Z 0603/0624 17011KT P6SM VCSH SCT090 BKN120
      TEMPO 0603/0605 21011G19KT 6SM -SHRA BKN045 OVC090
     FM060700 22009KT P6SM SCT250
     FM061500 15005KT P6SM BKN120=



000
FTUS46 KPDT 060135 AAA
TAFALW
TAF AMD
KALW 060135Z 0602/0624 15015KT P6SM SCT120 OVC150
     FM060500 20015G25KT P6SM VCSH BKN060 OVC090
     FM061000 21015G25KT P6SM SCT060
     FM061800 22012KT P6SM BKN120=



000
FTUS46 KPDT 060135 AAA
TAFALW
TAF AMD
KALW 060135Z 0602/0624 15015KT P6SM SCT120 OVC150
     FM060500 20015G25KT P6SM VCSH BKN060 OVC090
     FM061000 21015G25KT P6SM SCT060
     FM061800 22012KT P6SM BKN120=



000
FTUS46 KPDT 052326
TAFPDT
TAF
KPDT 052326Z 0600/0624 15010KT P6SM BKN110 OVC150
     FM060500 23015G25KT P6SM -SHRA BKN050 OVC070
     FM060900 24015G25KT P6SM BKN050
     FM061300 25011KT P6SM BKN130=



000
FTUS46 KPDT 052326
TAFDLS
TAF
KDLS 052326Z 0600/0624 VRB04KT P6SM VCSH OVC120
     FM060400 30010KT 6SM -SHRA BKN045 OVC070
     FM060700 29012G22KT P6SM BKN050
     FM061300 30008KT P6SM SCT050 BKN150=



000
FTUS46 KPDT 052326
TAFALW
TAF
KALW 052326Z 0600/0624 17015G25KT P6SM SCT120 OVC150
     FM060500 20015G25KT P6SM VCSH BKN060 OVC090
     FM061000 21015G25KT P6SM SCT060
     FM061800 22012KT P6SM BKN120=



000
FTUS46 KPDT 052326
TAFRDM
TAF
KRDM 052326Z 0600/0624 17008KT P6SM BKN130
     FM060300 21011KT P6SM VCSH BKN030 OVC050
     FM060700 22009KT P6SM SCT250
     FM061500 15005KT P6SM BKN120=



000
FTUS46 KPDT 052326
TAFYKM
TAF
KYKM 052326Z 0600/0624 28006KT P6SM BKN120
     FM060200 18004KT P6SM -SHRA BKN040 OVC070
     FM060500 25011KT P6SM SCT070
     FM061200 28010KT P6SM BKN150
     FM061800 VRB06KT P6SM SCT050 BKN120=



000
FTUS46 KPDT 052326
TAFPSC
TAF
KPSC 052326Z 0600/0624 VRB06KT P6SM BKN110
     FM060400 22015G25KT P6SM VCSH BKN070 OVC100
     FM060900 23015G25KT P6SM SCT100
     FM061500 22012KT P6SM BKN150=



000
FTUS46 KPDT 052326
TAFPDT
TAF
KPDT 052326Z 0600/0624 15010KT P6SM BKN110 OVC150
     FM060500 23015G25KT P6SM -SHRA BKN050 OVC070
     FM060900 24015G25KT P6SM BKN050
     FM061300 25011KT P6SM BKN130=



000
FTUS46 KPDT 052326
TAFALW
TAF
KALW 052326Z 0600/0624 17015G25KT P6SM SCT120 OVC150
     FM060500 20015G25KT P6SM VCSH BKN060 OVC090
     FM061000 21015G25KT P6SM SCT060
     FM061800 22012KT P6SM BKN120=



000
FTUS46 KPDT 052326
TAFYKM
TAF
KYKM 052326Z 0600/0624 28006KT P6SM BKN120
     FM060200 18004KT P6SM -SHRA BKN040 OVC070
     FM060500 25011KT P6SM SCT070
     FM061200 28010KT P6SM BKN150
     FM061800 VRB06KT P6SM SCT050 BKN120=



000
FTUS46 KPDT 052326
TAFRDM
TAF
KRDM 052326Z 0600/0624 17008KT P6SM BKN130
     FM060300 21011KT P6SM VCSH BKN030 OVC050
     FM060700 22009KT P6SM SCT250
     FM061500 15005KT P6SM BKN120=



000
FTUS46 KPDT 052326
TAFDLS
TAF
KDLS 052326Z 0600/0624 VRB04KT P6SM VCSH OVC120
     FM060400 30010KT 6SM -SHRA BKN045 OVC070
     FM060700 29012G22KT P6SM BKN050
     FM061300 30008KT P6SM SCT050 BKN150=



000
FTUS46 KPDT 052326
TAFPSC
TAF
KPSC 052326Z 0600/0624 VRB06KT P6SM BKN110
     FM060400 22015G25KT P6SM VCSH BKN070 OVC100
     FM060900 23015G25KT P6SM SCT100
     FM061500 22012KT P6SM BKN150=



000
FTUS46 KPDT 052127 AAC
TAFDLS
TAF AMD
KDLS 052127Z 0521/0618 08006KT P6SM SCT008 OVC120
     FM060200 33005KT P6SM -SHRA BKN045 OVC070
     FM060600 30015G25KT P6SM SCT050
     FM061200 28007KT P6SM BKN050=



000
FTUS46 KPDT 052127 AAB
TAFDLS
TAF AMD
KDLS 052127Z 0521/0618 08006KT P6SM SCT008
     FM060200 33005KT P6SM -SHRA BKN045 OVC070
     FM060600 30015G25KT P6SM SCT050
     FM061200 28007KT P6SM BKN050=



000
FTUS46 KPDT 052111 AAA
TAFALW
TAF AMD
KALW 052111Z 0521/0618 17015G25KT P6SM BKN120
     FM060500 17015G25KT P6SM -SHRA BKN060 OVC090
     FM060800 21020G30KT P6SM VCSH SCT060 BKN100=



000
FTUS46 KPDT 052010 AAA
TAFDLS
TAF AMD
KDLS 052010Z 0520/0618 08006KT P6SM OVC009
     FM060200 33005KT P6SM -SHRA BKN045 OVC070
     FM060600 30015G25KT P6SM SCT050
     FM061200 28007KT P6SM BKN050=



000
FTUS46 KPDT 051731
TAFPSC
TAF
KPSC 051731Z 0518/0618 VRB05KT P6SM SCT150
     FM052300 15006KT P6SM SCT100 BKN120
     FM060400 21015G25KT P6SM VCSH BKN070 OVC100
     FM060900 22015G25KT P6SM SCT100=



000
FTUS46 KPDT 051731
TAFPSC
TAF
KPSC 051731Z 0518/0618 VRB05KT P6SM SCT150
     FM052300 15006KT P6SM SCT100 BKN120
     FM060400 21015G25KT P6SM VCSH BKN070 OVC100
     FM060900 22015G25KT P6SM SCT100=



000
FTUS46 KPDT 051731
TAFALW
TAF
KALW 051731Z 0518/0618 17006KT P6SM SCT120
     FM052200 16012G20KT P6SM BKN120
     FM060500 17015G25KT P6SM -SHRA BKN060 OVC090
     FM060800 21020G30KT P6SM VCSH SCT060 BKN100=



000
FTUS46 KPDT 051731
TAFDLS
TAF
KDLS 051731Z 0518/0618 07006KT 6SM BR OVC008
     FM052000 08006KT P6SM SCT009 OVC120
     FM060200 33005KT P6SM -SHRA BKN045 OVC070
     FM060600 30015G25KT P6SM SCT050
     FM061200 28007KT P6SM BKN050=



000
FTUS46 KPDT 051731
TAFRDM
TAF
KRDM 051731Z 0518/0618 15007KT P6SM BKN120
     FM052100 17011KT P6SM BKN100
     FM060200 21012G20KT P6SM VCSH BKN050 BKN250
     FM060700 22010KT P6SM BKN250
     FM061200 16008KT P6SM BKN120=



000
FTUS46 KPDT 051731
TAFPDT
TAF
KPDT 051731Z 0518/0618 12006KT P6SM SCT120
     FM052200 15011KT P6SM BKN110 OVC150
     FM060400 19012G20KT P6SM -SHRA BKN050 OVC070
     FM060900 24018G28KT P6SM SCT050 BKN150=



000
FTUS46 KPDT 051731
TAFYKM
TAF
KYKM 051731Z 0518/0618 VRB04KT P6SM OVC120
     FM060200 18003KT P6SM -SHRA BKN040 OVC070
     FM060500 25011KT P6SM SCT070
     FM061200 28010KT P6SM SCT070=



000
FTUS46 KPDT 051637 AAC
TAFDLS
TAF AMD
KDLS 051637Z 0517/0612 05004KT 1/2SM FG OVC002
      TEMPO 0517/0519 4SM BR OVC007
     FM051900 08004KT P6SM BKN100 OVC150
     FM060100 33004KT P6SM -SHRA BKN045 OVC070
     FM060800 30015G25KT P6SM SCT050 BKN100=



000
FTUS46 KPDT 051637 AAC
TAFDLS
TAF AMD
KDLS 051637Z 0517/0612 05004KT 1/2SM FG OVC002
      TEMPO 0517/0519 4SM BR OVC007
     FM051900 08004KT P6SM BKN100 OVC150
     FM060100 33004KT P6SM -SHRA BKN045 OVC070
     FM060800 30015G25KT P6SM SCT050 BKN100=



000
FTUS46 KPDT 051527 AAA
TAFYKM
TAF AMD
KYKM 051527Z 0515/0612 28004KT P6SM SCT120
     FM051800 08004KT P6SM BKN090 OVC120
     FM060100 VRB03KT P6SM -SHRA BKN040 OVC070
     FM060600 23010KT P6SM VCSH SCT050 BKN100
     FM060800 25011G17KT P6SM SCT100=



000
FTUS46 KPDT 051457 AAB
TAFDLS
TAF AMD
KDLS 051457Z 0515/0612 05004KT 1 1/2SM BR OVC002
      TEMPO 0515/0518 4SM BR OVC003
     FM051900 08004KT P6SM BKN100 OVC150
     FM060100 33004KT P6SM -SHRA BKN045 OVC070
     FM060800 30015G25KT P6SM SCT050 BKN100=



000
FTUS46 KPDT 051326 AAA
TAFDLS
TAF AMD
KDLS 051326Z 0513/0612 05004KT 6SM BR OVC003
      TEMPO 0514/0518 2SM BR OVC002
     FM051900 08004KT P6SM BKN100 OVC150
     FM060100 33004KT P6SM -SHRA BKN045 OVC070
     FM060800 30015G25KT P6SM SCT050 BKN100=



000
FTUS46 KPDT 051326 AAA
TAFDLS
TAF AMD
KDLS 051326Z 0513/0612 05004KT 6SM BR OVC003
      TEMPO 0514/0518 2SM BR OVC002
     FM051900 08004KT P6SM BKN100 OVC150
     FM060100 33004KT P6SM -SHRA BKN045 OVC070
     FM060800 30015G25KT P6SM SCT050 BKN100=



000
FTUS46 KPDT 051120
TAFPSC
TAF
KPSC 051120Z 0512/0612 33004KT P6SM BKN100 OVC150
     FM051800 16006KT P6SM OVC110
     FM060300 19007KT P6SM -SHRA BKN070 OVC100
     FM060600 22017G28KT P6SM SCT100=



000
FTUS46 KPDT 051120
TAFPSC
TAF
KPSC 051120Z 0512/0612 33004KT P6SM BKN100 OVC150
     FM051800 16006KT P6SM OVC110
     FM060300 19007KT P6SM -SHRA BKN070 OVC100
     FM060600 22017G28KT P6SM SCT100=



000
FTUS46 KPDT 051120
TAFALW
TAF
KALW 051120Z 0512/0612 15006KT P6SM SCT080 OVC110
     FM052000 16011G16KT P6SM BKN100 OVC140
     FM060300 17015G25KT P6SM -SHRA BKN060 OVC090
     FM060600 21020G30KT P6SM SCT060 BKN100=



000
FTUS46 KPDT 051120
TAFDLS
TAF
KDLS 051120Z 0512/0612 05004KT 1 1/2SM BR OVC002
      TEMPO 0512/0516 1/2SM FG OVC003
     FM051900 08004KT P6SM BKN100 OVC150
     FM060100 33004KT P6SM -SHRA BKN045 OVC070
     FM060800 30015G25KT P6SM SCT050 BKN100=



000
FTUS46 KPDT 051120
TAFYKM
TAF
KYKM 051120Z 0512/0612 28004KT P6SM SCT110 OVC150
      TEMPO 0514/0517 4SM BR
     FM051800 08004KT P6SM BKN090 OVC120
     FM060100 VRB03KT P6SM -SHRA BKN040 OVC070
     FM060600 23010KT P6SM VCSH SCT050 BKN100
     FM060800 25011G17KT P6SM SCT100=



000
FTUS46 KPDT 051120
TAFPDT
TAF
KPDT 051120Z 0512/0612 16005KT P6SM SCT080 BKN110
     FM052000 15011KT P6SM BKN110 OVC150
     FM060300 19011G18KT P6SM -SHRA BKN070 OVC100
     FM060600 24018G28KT P6SM VCSH SCT070 BKN100=



000
FTUS46 KPDT 051120
TAFRDM
TAF
KRDM 051120Z 0512/0612 14005KT P6SM SKC
     FM051500 16007KT P6SM SCT080 BKN110
     FM052200 18011KT P6SM SCT090 BKN150
     FM060200 20012G20KT P6SM -SHRA BKN050 OVC080
     FM060600 22015G24KT P6SM SCT050 BKN100=



000
FTUS46 KPDT 051120
TAFYKM
TAF
KYKM 051120Z 0512/0612 28004KT P6SM SCT110 OVC150
      TEMPO 0514/0517 4SM BR
     FM051800 08004KT P6SM BKN090 OVC120
     FM060100 VRB03KT P6SM -SHRA BKN040 OVC070
     FM060600 23010KT P6SM VCSH SCT050 BKN100
     FM060800 25011G17KT P6SM SCT100=



000
FTUS46 KPDT 051120
TAFRDM
TAF
KRDM 051120Z 0512/0612 14005KT P6SM SKC
     FM051500 16007KT P6SM SCT080 BKN110
     FM052200 18011KT P6SM SCT090 BKN150
     FM060200 20012G20KT P6SM -SHRA BKN050 OVC080
     FM060600 22015G24KT P6SM SCT050 BKN100=



000
FTUS46 KPDT 051120
TAFPDT
TAF
KPDT 051120Z 0512/0612 16005KT P6SM SCT080 BKN110
     FM052000 15011KT P6SM BKN110 OVC150
     FM060300 19011G18KT P6SM -SHRA BKN070 OVC100
     FM060600 24018G28KT P6SM VCSH SCT070 BKN100=



000
FTUS46 KPDT 051120
TAFDLS
TAF
KDLS 051120Z 0512/0612 05004KT 1 1/2SM BR OVC002
      TEMPO 0512/0516 1/2SM FG OVC003
     FM051900 08004KT P6SM BKN100 OVC150
     FM060100 33004KT P6SM -SHRA BKN045 OVC070
     FM060800 30015G25KT P6SM SCT050 BKN100=



000
FTUS46 KPDT 051120
TAFALW
TAF
KALW 051120Z 0512/0612 15006KT P6SM SCT080 OVC110
     FM052000 16011G16KT P6SM BKN100 OVC140
     FM060300 17015G25KT P6SM -SHRA BKN060 OVC090
     FM060600 21020G30KT P6SM SCT060 BKN100=



    US Dept of Commerce
    National Oceanic and Atmospheric Administration
    National Weather Service
    1325 East West Highway
    Silver Spring, MD 20910
    Page Author: NWS Internet Services Team
Disclaimer
Information Quality
Credits
Glossary
Privacy Policy
Freedom of Information Act (FOIA)
About Us
Career Opportunities